createdAt,value
2022-11-24T00:01:26.975Z,100640.00
2022-11-24T00:04:04.889Z,100649.50
2022-11-24T00:06:34.995Z,100651.25
2022-11-24T00:09:03.924Z,100651.56
2022-11-24T00:11:33.634Z,100643.69
2022-11-24T00:14:01.670Z,100648.34
2022-11-24T00:16:34.677Z,100652.50
2022-11-24T00:19:03.975Z,100647.22
2022-11-24T00:21:32.191Z,100638.53
2022-11-24T00:23:59.985Z,100646.25
2022-11-24T00:26:32.292Z,100658.78
2022-11-24T00:29:02.030Z,100649.78
2022-11-24T00:31:31.624Z,100651.88
2022-11-24T00:34:01.450Z,100650.91
2022-11-24T00:36:31.426Z,100652.00
2022-11-24T00:39:07.927Z,100650.56
2022-11-24T00:41:35.194Z,100642.69
2022-11-24T00:44:02.391Z,100638.81
2022-11-24T00:46:29.943Z,100641.91
2022-11-24T00:48:57.843Z,100644.47
2022-11-24T00:51:28.188Z,100645.56
2022-11-24T00:53:56.632Z,100654.88
2022-11-24T00:56:25.114Z,100649.25
2022-11-24T00:58:52.478Z,100655.84
2022-11-24T01:01:28.848Z,100656.94
2022-11-24T01:03:56.820Z,100652.44
2022-11-24T01:06:27.208Z,100651.16
2022-11-24T01:08:55.045Z,100648.88
2022-11-24T01:11:27.978Z,100642.59
2022-11-24T01:13:58.421Z,100635.66
2022-11-24T01:16:31.759Z,100643.03
2022-11-24T01:18:58.987Z,100641.44
2022-11-24T01:21:26.077Z,100649.81
2022-11-24T01:23:53.613Z,100651.41
2022-11-24T01:26:22.657Z,100658.00
2022-11-24T01:28:59.207Z,100652.84
2022-11-24T01:31:26.950Z,100639.03
2022-11-24T01:33:55.012Z,100639.69
2022-11-24T01:36:23.103Z,100645.66
2022-11-24T01:38:50.613Z,100660.41
2022-11-24T01:41:25.751Z,100659.41
2022-11-24T01:53:34.680Z,100673.88
2022-11-24T01:56:02.853Z,100664.56
2022-11-24T01:58:32.767Z,100655.09
2022-11-24T02:01:00.337Z,100655.59
2022-11-24T02:03:32.742Z,100660.22
2022-11-24T02:06:05.048Z,100655.88
2022-11-24T02:08:50.691Z,100663.63
2022-11-24T02:11:19.122Z,100649.97
2022-11-24T02:13:48.256Z,100653.66
2022-11-24T02:16:15.470Z,100646.09
2022-11-24T02:18:43.610Z,100646.41
2022-11-24T02:21:13.955Z,100643.50
2022-11-24T02:23:47.136Z,100654.53
2022-11-24T02:26:32.626Z,100655.53
2022-11-24T02:29:00.251Z,100644.63
2022-11-24T02:31:28.044Z,100637.03
2022-11-24T02:33:55.896Z,100631.91
2022-11-24T02:36:23.134Z,100643.00
2022-11-24T02:38:50.275Z,100644.97
2022-11-24T02:41:21.019Z,100637.28
2022-11-24T02:43:53.394Z,100638.53
2022-11-24T02:46:20.693Z,100639.97
2022-11-24T02:48:48.160Z,100641.13
2022-11-24T02:51:15.390Z,100643.84
2022-11-24T02:53:42.573Z,100647.22
2022-11-24T02:56:09.769Z,100649.13
2022-11-24T02:58:37.232Z,100657.16
2022-11-24T03:01:04.806Z,100651.31
2022-11-24T03:03:32.299Z,100653.88
2022-11-24T03:05:59.516Z,100646.81
2022-11-24T03:08:26.788Z,100650.50
2022-11-24T03:10:54.817Z,100656.94
2022-11-24T03:13:22.073Z,100651.81
2022-11-24T03:15:50.854Z,100643.75
2022-11-24T03:18:18.131Z,100633.16
2022-11-24T03:20:45.233Z,100632.66
2022-11-24T03:23:12.966Z,100641.47
2022-11-24T03:25:40.257Z,100647.09
2022-11-24T03:28:07.429Z,100637.16
2022-11-24T03:30:34.505Z,100629.63
2022-11-24T03:33:02.694Z,100627.69
2022-11-24T03:35:29.738Z,100630.56
2022-11-24T03:37:56.797Z,100630.56
2022-11-24T03:40:24.811Z,100644.06
2022-11-24T03:42:51.876Z,100647.78
2022-11-24T03:48:08.222Z,100658.19
2022-11-24T03:50:35.288Z,100663.97
2022-11-24T03:53:02.834Z,100669.91
2022-11-24T03:55:29.950Z,100665.91
2022-11-24T03:57:57.262Z,100672.78
2022-11-24T04:00:24.487Z,100686.44
2022-11-24T04:02:51.710Z,100688.81
2022-11-24T04:05:18.897Z,100689.25
2022-11-24T04:07:46.159Z,100687.63
2022-11-24T04:10:13.510Z,100680.56
2022-11-24T04:12:44.368Z,100689.88
2022-11-24T04:15:19.874Z,100686.81
2022-11-24T04:17:48.272Z,100661.63
2022-11-24T04:20:16.311Z,100664.63
2022-11-24T04:22:43.864Z,100684.72
2022-11-24T04:25:11.680Z,100684.44
2022-11-24T04:27:39.459Z,100696.38
2022-11-24T04:30:08.722Z,100693.47
2022-11-24T04:32:36.639Z,100725.88
2022-11-24T04:35:04.791Z,100728.31
2022-11-24T04:37:34.515Z,100730.09
2022-11-24T04:40:01.711Z,100722.53
2022-11-24T04:42:28.792Z,100738.91
2022-11-24T04:44:56.028Z,100747.88
2022-11-24T04:47:25.308Z,100749.00
2022-11-24T04:49:53.505Z,100749.63
2022-11-24T04:52:22.815Z,100757.66
2022-11-24T04:54:50.218Z,100755.78
2022-11-24T04:57:23.895Z,100760.72
2022-11-24T04:59:52.861Z,100774.38
2022-11-24T05:02:20.351Z,100775.69
2022-11-24T05:04:48.225Z,100768.59
2022-11-24T05:07:19.003Z,100771.97
2022-11-24T05:10:06.304Z,100771.09
2022-11-24T05:12:33.821Z,100775.06
2022-11-24T05:15:02.751Z,100786.44
2022-11-24T05:17:32.115Z,100802.88
2022-11-24T05:19:59.771Z,100811.63
2022-11-24T05:22:29.634Z,100811.63
2022-11-24T05:24:56.833Z,100803.75
2022-11-24T05:27:24.230Z,100807.22
2022-11-24T05:29:51.339Z,100812.06
2022-11-24T05:32:18.436Z,100831.78
2022-11-24T05:34:45.802Z,100820.56
2022-11-24T05:37:14.346Z,100816.22
2022-11-24T05:39:41.509Z,100825.84
2022-11-24T05:42:27.709Z,100820.84
2022-11-24T05:44:55.019Z,100830.69
2022-11-24T05:47:22.403Z,100830.06
2022-11-24T05:49:49.777Z,100829.81
2022-11-24T05:52:17.446Z,100834.66
2022-11-24T05:54:44.675Z,100851.03
2022-11-24T05:57:11.791Z,100851.44
2022-11-24T05:59:39.156Z,100846.03
2022-11-24T06:02:06.337Z,100845.91
2022-11-24T06:04:33.679Z,100844.94
2022-11-24T06:07:01.000Z,100842.44
2022-11-24T06:09:28.308Z,100853.91
2022-11-24T06:11:55.411Z,100841.72
2022-11-24T06:14:22.664Z,100830.03
2022-11-24T06:16:49.830Z,100836.53
2022-11-24T06:19:17.162Z,100843.31
2022-11-24T06:21:44.297Z,100851.91
2022-11-24T06:24:11.501Z,100862.69
2022-11-24T06:26:38.624Z,100872.66
2022-11-24T06:29:05.924Z,100852.63
2022-11-24T06:31:33.148Z,100862.44
2022-11-24T06:34:00.984Z,100880.06
2022-11-24T06:36:28.401Z,100874.44
2022-11-24T06:38:55.668Z,100884.91
2022-11-24T06:41:22.868Z,100897.00
2022-11-24T06:43:49.911Z,100896.22
2022-11-24T06:46:17.249Z,100884.16
2022-11-24T06:48:44.308Z,100884.94
2022-11-24T06:51:13.316Z,100894.78
2022-11-24T06:53:41.067Z,100898.16
2022-11-24T06:56:16.118Z,100913.59
2022-11-24T06:58:46.244Z,100904.75
2022-11-24T07:01:24.939Z,100923.59
2022-11-24T07:03:54.130Z,100918.59
2022-11-24T07:06:22.716Z,100908.44
2022-11-24T07:08:50.651Z,100914.72
2022-11-24T07:11:23.299Z,100917.75
2022-11-24T07:13:55.117Z,100934.50
2022-11-24T07:16:26.941Z,100936.44
2022-11-24T07:18:55.030Z,100939.28
2022-11-24T07:21:24.217Z,100956.66
2022-11-24T07:23:52.972Z,100951.94
2022-11-24T07:26:20.982Z,100955.47
2022-11-24T07:28:48.211Z,100965.78
2022-11-24T07:31:19.181Z,100962.06
2022-11-24T07:33:51.387Z,100953.97
2022-11-24T07:36:18.982Z,100965.56
2022-11-24T07:38:46.172Z,100954.41
2022-11-24T07:41:15.835Z,100959.69
2022-11-24T07:43:42.913Z,100965.06
2022-11-24T07:46:12.943Z,100951.25
2022-11-24T07:48:40.340Z,100964.47
2022-11-24T07:51:08.527Z,100959.59
2022-11-24T07:53:36.698Z,100964.22
2022-11-24T07:56:06.420Z,100974.22
2022-11-24T07:58:36.209Z,100970.13
2022-11-24T08:01:18.111Z,100970.75
2022-11-24T08:03:46.544Z,100962.56
2022-11-24T08:06:39.374Z,100981.34
2022-11-24T08:09:02.457Z,100983.31
2022-11-24T08:11:31.659Z,100984.06
2022-11-24T08:13:58.988Z,100984.94
2022-11-24T08:16:26.390Z,100980.78
2022-11-24T08:18:55.675Z,100991.75
2022-11-24T08:21:23.667Z,100992.25
2022-11-24T08:23:55.226Z,100986.75
2022-11-24T08:26:23.220Z,101000.44
2022-11-24T08:28:54.823Z,101002.06
2022-11-24T08:31:22.811Z,101003.38
2022-11-24T08:33:49.909Z,101010.63
2022-11-24T08:36:19.360Z,101009.28
2022-11-24T08:38:46.752Z,101008.41
2022-11-24T08:41:16.266Z,101001.91
2022-11-24T08:43:43.936Z,101007.97
2022-11-24T08:46:14.694Z,101003.66
2022-11-24T08:48:41.888Z,100991.28
2022-11-24T08:51:14.819Z,100990.56
2022-11-24T08:53:42.683Z,100997.09
2022-11-24T08:56:11.154Z,100987.91
2022-11-24T08:58:38.875Z,100986.16
2022-11-24T09:01:10.521Z,100981.91
2022-11-24T09:03:38.531Z,100981.06
2022-11-24T09:06:07.426Z,100985.22
2022-11-24T09:08:34.880Z,100996.22
2022-11-24T09:11:08.131Z,101017.59
2022-11-24T09:13:36.063Z,101006.63
2022-11-24T09:16:11.806Z,101001.78
2022-11-24T09:18:39.749Z,101004.09
2022-11-24T09:21:12.865Z,100999.16
2022-11-24T09:23:40.755Z,100996.44
2022-11-24T09:26:10.516Z,100993.25
2022-11-24T09:28:37.995Z,100991.63
2022-11-24T09:31:08.008Z,100999.59
2022-11-24T09:33:35.826Z,100997.56
2022-11-24T09:36:03.384Z,100995.56
2022-11-24T09:38:31.595Z,100993.06
2022-11-24T09:41:26.286Z,101002.84
2022-11-24T09:44:23.844Z,101008.84
2022-11-24T09:47:21.003Z,101010.00
2022-11-24T09:49:53.508Z,101013.47
2022-11-24T09:52:35.159Z,101007.47
2022-11-24T09:55:05.210Z,100999.81
2022-11-24T09:57:37.643Z,100989.03
2022-11-24T10:00:12.869Z,100997.03
2022-11-24T10:02:40.040Z,100986.00
2022-11-24T10:05:07.875Z,100994.59
2022-11-24T10:07:46.863Z,100995.59
2022-11-24T10:10:24.509Z,100989.84
2022-11-24T10:13:01.705Z,100986.59
2022-11-24T10:15:53.810Z,100986.34
2022-11-24T10:18:44.799Z,100972.28
2022-11-24T10:21:46.947Z,100978.09
2022-11-24T10:24:25.612Z,100981.78
2022-11-24T10:27:04.300Z,100973.16
2022-11-24T10:29:31.409Z,100967.88
2022-11-24T10:31:58.557Z,100965.78
2022-11-24T10:34:38.886Z,100952.44
2022-11-24T10:37:12.113Z,100942.56
2022-11-24T10:40:04.273Z,100937.59
2022-11-24T10:42:35.542Z,100949.00
2022-11-24T10:45:17.791Z,100932.88
2022-11-24T10:47:46.040Z,100934.66
2022-11-24T10:50:21.262Z,100934.66
2022-11-24T10:52:57.372Z,100935.66
2022-11-24T10:55:24.841Z,100939.31
2022-11-24T10:57:52.182Z,100940.59
2022-11-24T11:00:19.277Z,100944.63
2022-11-24T11:02:48.871Z,100936.25
2022-11-24T11:05:43.772Z,100938.53
2022-11-24T11:08:22.493Z,100943.38
2022-11-24T11:10:52.563Z,100943.72
2022-11-24T11:13:28.900Z,100934.97
2022-11-24T11:15:58.346Z,100949.59
2022-11-24T11:18:32.213Z,100943.69
2022-11-24T11:21:04.665Z,100952.78
2022-11-24T11:23:36.141Z,100942.72
2022-11-24T11:26:25.057Z,100945.63
2022-11-24T11:34:52.965Z,100967.63
2022-11-24T11:37:21.758Z,100973.81
2022-11-24T11:39:57.237Z,100973.53
2022-11-24T11:45:30.593Z,100965.13
2022-11-24T11:48:03.373Z,100972.56
2022-11-24T11:51:14.682Z,100984.44
2022-11-24T11:53:53.505Z,100994.53
2022-11-24T11:56:23.557Z,101006.00
2022-11-24T11:59:21.236Z,100995.78
2022-11-24T12:02:09.732Z,100995.88
2022-11-24T12:04:47.014Z,100986.44
2022-11-24T12:07:32.159Z,100996.50
2022-11-24T12:10:14.298Z,100992.66
2022-11-24T12:12:48.206Z,100985.44
2022-11-24T12:15:30.176Z,101003.63
2022-11-24T12:18:55.072Z,100999.31
2022-11-24T12:21:27.776Z,101003.16
2022-11-24T12:24:12.674Z,101014.50
2022-11-24T12:26:53.556Z,101019.88
2022-11-24T12:29:32.927Z,101019.88
2022-11-24T12:32:10.801Z,101010.22
2022-11-24T12:34:43.837Z,101014.34
2022-11-24T12:37:30.767Z,101011.03
2022-11-24T12:40:31.676Z,101009.41
2022-11-24T12:43:09.838Z,101004.41
2022-11-24T12:45:57.642Z,100998.91
2022-11-24T12:48:30.795Z,101000.94
2022-11-24T12:50:59.373Z,100998.69
2022-11-24T12:53:33.567Z,101002.28
2022-11-24T12:56:12.614Z,100998.59
2022-11-24T12:58:50.439Z,100990.25
2022-11-24T13:02:11.282Z,100977.22
2022-11-24T13:05:02.833Z,100969.59
2022-11-24T13:07:45.531Z,100970.59
2022-11-24T13:10:46.542Z,100979.91
2022-11-24T13:13:16.710Z,100974.66
2022-11-24T13:16:07.088Z,100980.97
2022-11-24T13:18:58.887Z,100980.28
2022-11-24T13:21:41.737Z,100978.19
2022-11-24T13:24:19.213Z,100988.16
2022-11-24T13:26:55.775Z,100988.41
2022-11-24T13:29:28.977Z,100998.03
2022-11-24T13:32:16.005Z,100992.41
2022-11-24T13:34:43.132Z,100981.31
2022-11-24T13:37:31.407Z,100963.28
2022-11-24T13:40:11.676Z,100982.09
2022-11-24T13:45:39.872Z,100965.13
2022-11-24T13:48:19.830Z,100962.28
2022-11-24T13:50:50.375Z,100988.78
2022-11-24T13:53:26.400Z,100990.16
2022-11-24T13:56:12.155Z,100969.16
2022-11-24T13:58:40.654Z,100972.59
2022-11-24T14:01:12.659Z,100983.94
2022-11-24T14:04:27.934Z,100993.63
2022-11-24T14:06:59.003Z,101009.50
2022-11-24T14:09:40.900Z,101015.25
2022-11-24T14:12:16.374Z,101007.41
2022-11-24T14:14:45.913Z,101012.25
2022-11-24T14:17:23.288Z,101019.00
2022-11-24T14:19:52.974Z,101021.09
2022-11-24T14:22:27.059Z,101026.47
2022-11-24T14:24:59.921Z,101029.81
2022-11-24T14:27:34.470Z,101040.16
2022-11-24T14:30:05.353Z,101047.47
2022-11-24T14:32:32.726Z,101044.22
2022-11-24T14:34:59.943Z,101032.63
2022-11-24T14:37:27.283Z,101024.38
2022-11-24T14:39:54.453Z,101028.72
2022-11-24T14:42:30.171Z,101032.00
2022-11-24T14:45:04.031Z,101042.13
2022-11-24T14:47:45.058Z,101055.19
2022-11-24T14:50:16.251Z,101038.69
2022-11-24T14:52:52.832Z,101044.31
2022-11-24T14:55:25.756Z,101045.38
2022-11-24T14:57:53.020Z,101051.88
2022-11-24T15:00:25.620Z,101059.34
2022-11-24T15:03:13.801Z,101065.44
2022-11-24T15:06:01.266Z,101070.16
2022-11-24T15:08:37.785Z,101075.66
2022-11-24T15:11:07.142Z,101074.63
2022-11-24T15:13:38.219Z,101078.03
2022-11-24T15:16:15.000Z,101076.22
2022-11-24T15:18:44.474Z,101078.59
2022-11-24T15:21:17.469Z,101092.84
2022-11-24T15:24:06.084Z,101091.00
2022-11-24T15:26:39.976Z,101087.66
2022-11-24T15:29:09.484Z,101080.09
2022-11-24T15:31:37.114Z,101089.38
2022-11-24T15:34:04.340Z,101096.09
2022-11-24T15:36:31.507Z,101092.03
2022-11-24T15:38:58.969Z,101084.03
2022-11-24T15:41:32.257Z,101087.31
2022-11-24T15:43:59.737Z,101091.88
2022-11-24T15:46:28.788Z,101078.63
2022-11-24T15:48:56.328Z,101082.38
2022-11-24T15:51:26.541Z,101085.47
2022-11-24T15:54:01.097Z,101086.91
2022-11-24T15:56:34.711Z,101088.22
2022-11-24T15:59:02.560Z,101097.28
2022-11-24T16:01:33.143Z,101095.88
2022-11-24T16:04:01.240Z,101088.63
2022-11-24T16:06:28.409Z,101096.56
2022-11-24T16:08:56.212Z,101094.13
2022-11-24T16:11:23.434Z,101093.31
2022-11-24T16:13:53.218Z,101091.25
2022-11-24T16:16:22.084Z,101092.25
2022-11-24T16:18:49.366Z,101096.13
2022-11-24T16:21:16.809Z,101098.53
2022-11-24T16:23:43.959Z,101103.69
2022-11-24T16:26:11.238Z,101106.59
2022-11-24T16:28:38.274Z,101101.75
2022-11-24T16:31:05.412Z,101106.13
2022-11-24T16:33:32.671Z,101083.53
2022-11-24T16:35:59.913Z,101093.72
2022-11-24T16:38:27.076Z,101102.59
2022-11-24T16:40:56.607Z,101092.84
2022-11-24T16:43:24.764Z,101103.09
2022-11-24T16:46:09.635Z,101098.97
2022-11-24T16:48:37.308Z,101104.44
2022-11-24T16:51:09.112Z,101116.38
2022-11-24T16:53:37.428Z,101118.34
2022-11-24T16:56:05.159Z,101121.88
2022-11-24T16:58:32.354Z,101125.38
2022-11-24T17:01:10.933Z,101128.69
2022-11-24T17:03:39.147Z,101139.09
2022-11-24T17:06:08.066Z,101155.72
2022-11-24T17:08:37.852Z,101153.22
2022-11-24T17:11:11.640Z,101158.38
2022-11-24T17:13:39.459Z,101149.47
2022-11-24T17:16:08.756Z,101146.91
2022-11-24T17:18:36.476Z,101162.16
2022-11-24T17:21:09.132Z,101166.22
2022-11-24T17:23:37.294Z,101162.53
2022-11-24T17:26:07.247Z,101167.72
2022-11-24T17:28:35.778Z,101168.41
2022-11-24T17:31:14.549Z,101175.69
2022-11-24T17:33:41.981Z,101172.47
2022-11-24T17:36:09.311Z,101171.00
2022-11-24T17:38:37.149Z,101174.59
2022-11-24T17:41:06.292Z,101181.53
2022-11-24T17:43:33.836Z,101179.94
2022-11-24T17:46:02.821Z,101175.41
2022-11-24T17:48:31.385Z,101183.66
2022-11-24T17:51:10.286Z,101188.66
2022-11-24T17:53:37.838Z,101191.41
2022-11-24T17:56:06.234Z,101206.09
2022-11-24T17:58:39.726Z,101209.97
2022-11-24T18:01:10.585Z,101213.34
2022-11-24T18:03:39.640Z,101211.25
2022-11-24T18:06:10.691Z,101210.94
2022-11-24T18:08:42.008Z,101223.53
2022-11-24T18:11:18.352Z,101230.47
2022-11-24T18:14:02.081Z,101228.03
2022-11-24T18:16:37.309Z,101238.03
2022-11-24T18:19:10.865Z,101234.16
2022-11-24T18:21:40.440Z,101238.00
2022-11-24T18:24:09.233Z,101234.59
2022-11-24T18:26:36.523Z,101234.09
2022-11-24T18:29:04.881Z,101242.16
2022-11-24T18:31:34.489Z,101238.78
2022-11-24T18:34:02.609Z,101241.66
2022-11-24T18:36:30.750Z,101249.06
2022-11-24T18:39:05.440Z,101248.25
2022-11-24T18:41:32.821Z,101255.84
2022-11-24T18:44:03.312Z,101257.78
2022-11-24T18:46:30.747Z,101259.53
2022-11-24T18:48:57.942Z,101251.31
2022-11-24T18:51:25.518Z,101252.94
2022-11-24T18:54:00.185Z,101256.16
2022-11-24T18:56:27.803Z,101274.38
2022-11-24T18:58:56.552Z,101278.06
2022-11-24T19:01:29.243Z,101283.56
2022-11-24T19:03:59.634Z,101291.78
2022-11-24T19:06:35.333Z,101299.88
2022-11-24T19:09:09.332Z,101300.81
2022-11-24T19:11:39.105Z,101306.63
2022-11-24T19:14:07.830Z,101309.03
2022-11-24T19:16:35.438Z,101305.00
2022-11-24T19:19:03.231Z,101318.84
2022-11-24T19:21:32.617Z,101321.41
2022-11-24T19:24:05.027Z,101320.28
2022-11-24T19:26:35.345Z,101310.13
2022-11-24T19:29:03.508Z,101315.97
2022-11-24T19:31:30.785Z,101320.31
2022-11-24T19:34:00.006Z,101321.06
2022-11-24T19:36:27.157Z,101322.38
2022-11-24T19:39:01.967Z,101314.75
2022-11-24T19:41:31.361Z,101319.28
2022-11-24T19:43:59.567Z,101318.75
2022-11-24T19:46:29.752Z,101318.91
2022-11-24T19:49:00.338Z,101321.31
2022-11-24T19:51:33.251Z,101327.31
2022-11-24T19:54:01.437Z,101326.97
2022-11-24T19:56:30.996Z,101329.44
2022-11-24T19:58:58.312Z,101335.44
2022-11-24T20:01:34.086Z,101327.56
2022-11-24T20:04:04.397Z,101340.75
2022-11-24T20:06:40.399Z,101332.69
2022-11-24T20:09:09.959Z,101345.28
2022-11-24T20:11:37.828Z,101350.13
2022-11-24T20:14:06.251Z,101345.91
2022-11-24T20:16:35.338Z,101345.34
2022-11-24T20:19:08.782Z,101350.19
2022-11-24T20:21:37.874Z,101354.97
2022-11-24T20:24:08.301Z,101355.72
2022-11-24T20:26:38.288Z,101353.41
2022-11-24T20:29:06.380Z,101358.41
2022-11-24T20:31:36.228Z,101360.84
2022-11-24T20:34:05.515Z,101361.63
2022-11-24T20:36:34.328Z,101359.69
2022-11-24T20:39:04.302Z,101373.28
2022-11-24T20:41:34.511Z,101374.41
2022-11-24T20:44:05.403Z,101370.19
2022-11-24T20:46:35.351Z,101380.75
2022-11-24T20:49:03.903Z,101385.22
2022-11-24T20:51:34.204Z,101387.97
2022-11-24T20:54:04.815Z,101382.38
2022-11-24T20:56:35.406Z,101396.56
2022-11-24T20:59:03.943Z,101387.97
2022-11-24T21:01:38.865Z,101382.91
2022-11-24T21:04:11.527Z,101386.16
2022-11-24T21:06:39.465Z,101381.63
2022-11-24T21:09:08.080Z,101379.00
2022-11-24T21:11:36.148Z,101368.38
2022-11-24T21:14:03.735Z,101370.09
2022-11-24T21:16:33.547Z,101370.22
2022-11-24T21:19:04.013Z,101375.00
2022-11-24T21:21:34.731Z,101369.94
2022-11-24T21:24:16.147Z,101371.06
2022-11-24T21:26:44.718Z,101371.50
2022-11-24T21:29:14.133Z,101370.78
2022-11-24T21:31:41.801Z,101376.06
2022-11-24T21:34:09.174Z,101376.69
2022-11-24T21:36:40.273Z,101386.31
2022-11-24T21:39:07.679Z,101385.84
2022-11-24T21:41:34.885Z,101386.50
2022-11-24T21:44:02.202Z,101391.31
2022-11-24T21:46:39.055Z,101396.88
2022-11-24T21:49:09.678Z,101397.78
2022-11-24T21:51:36.918Z,101409.41
2022-11-24T21:54:04.155Z,101408.50
2022-11-24T21:56:31.447Z,101414.88
2022-11-24T21:58:58.885Z,101419.84
2022-11-24T22:01:28.478Z,101419.03
2022-11-24T22:03:56.431Z,101419.84
2022-11-24T22:06:24.007Z,101418.03
2022-11-24T22:08:51.191Z,101420.22
2022-11-24T22:11:21.955Z,101436.03
2022-11-24T22:13:49.950Z,101425.09
2022-11-24T22:16:22.495Z,101428.75
2022-11-24T22:18:50.062Z,101429.16
2022-11-24T22:21:40.266Z,101434.09
2022-11-24T22:24:07.914Z,101437.75
2022-11-24T22:26:36.085Z,101425.00
2022-11-24T22:29:04.079Z,101436.41
2022-11-24T22:31:32.935Z,101438.56
2022-11-24T22:34:01.227Z,101435.31
2022-11-24T22:36:30.290Z,101439.75
2022-11-24T22:38:59.730Z,101434.81
2022-11-24T22:41:26.949Z,101439.16
2022-11-24T22:43:54.090Z,101438.16
2022-11-24T22:46:26.841Z,101438.75
2022-11-24T22:48:55.382Z,101446.53
2022-11-24T22:51:28.868Z,101447.16
2022-11-24T22:53:58.652Z,101446.34
2022-11-24T22:56:28.116Z,101450.28
2022-11-24T22:58:55.308Z,101444.00
2022-11-24T23:01:24.640Z,101446.53
2022-11-24T23:03:54.738Z,101448.53
2022-11-24T23:06:27.349Z,101446.09
2022-11-24T23:08:55.090Z,101445.91
2022-11-24T23:11:41.618Z,101437.19
2022-11-24T23:14:14.324Z,101438.06
2022-11-24T23:16:42.230Z,101436.56
2022-11-24T23:19:09.855Z,101441.81
2022-11-24T23:21:38.695Z,101437.53
2022-11-24T23:24:07.376Z,101435.00
2022-11-24T23:26:38.365Z,101437.75
2022-11-24T23:29:06.300Z,101440.25
2022-11-24T23:31:33.637Z,101456.44
2022-11-24T23:34:03.424Z,101454.88
2022-11-24T23:36:32.060Z,101449.41
2022-11-24T23:39:04.635Z,101439.91
2022-11-24T23:41:32.199Z,101453.50
2022-11-24T23:44:00.297Z,101457.53
2022-11-24T23:46:28.228Z,101459.81
2022-11-24T23:48:56.375Z,101455.25
2022-11-24T23:51:31.727Z,101450.09
2022-11-24T23:54:00.111Z,101444.72
2022-11-24T23:56:32.648Z,101442.25
2022-11-24T23:59:04.109Z,101446.69
